Decoded Metar for KDEQ (DE QUEEN in AR, USA) (IATA:DEQ) | Meteo·Mobile Aviation Weather
aviador You're here:

KDEQ Decoded Metar

DE QUEEN in AR, USA
Report Time2019-07-21 16:53:00
UTC Time2019-07-21 17:04:09
Flight Rules vfr VFR
WindCalm
Visibility9999 m
Phenomena:N/A
Clouds:Few 029 Hf
Expected CloudBase > 2,800 ft AGL from Temp-Dew spread
CeilingNone
Temp32°C (ISA +18)
Dew Point25°C (67% RH)
Heat Index39.3°C
QNH1015 hPa
Density Alt2,717 ft
Elevation348 ft
Report Wrong Elevation
Raw Report
KDEQ 211653Z AUTO 00000KT 10SM FEW029 32/25 A2997 RMK AO1 SLP145
T03170250=

Extra information for KDEQ:More info

Metar Taf Metar & Taf Last 4 Metars F.Rules Stats Wind Profile Meteogram Temp Stats Airport Information Weather charts Add Link Nearby VenuesMetar ALERT Operation Metar Decoded Social comments

AIRNAV info for KDEQ